Time;durP1;ratioP1;P1;durP2;ratioP2;P2;SDS_P1;SDS_P2;PMS_P1;PMS_P2;Temp;Humidity;BMP_temperature;BMP_pressure;BME280_temperature;BME280_humidity;BME280_pressure;Samples;Min_cycle;Max_cycle;Signal;HPM_P1;HPM_P2
2023/12/08 00:00:07;;;;;;;36.00;20.42;;;;;;;2.19;100.00;100579.38;5093538;28;20044;-41
2023/12/08 00:02:36;;;;;;;35.67;20.27;;;;;;;2.00;100.00;100581.50;5093573;28;20139;-43
2023/12/08 00:05:05;;;;;;;35.60;20.55;;;;;;;1.91;100.00;100576.44;5093599;28;20055;-41
2023/12/08 00:07:34;;;;;;;35.85;20.60;;;;;;;1.92;100.00;100585.19;5093101;28;20086;-42
2023/12/08 00:10:04;;;;;;;34.47;20.05;;;;;;;1.92;100.00;100588.69;5092891;28;20135;-41
2023/12/08 00:12:33;;;;;;;34.17;18.80;;;;;;;1.75;100.00;100597.81;5093289;28;20052;-39
2023/12/08 00:15:01;;;;;;;34.97;19.80;;;;;;;1.73;100.00;100596.06;5093473;28;20083;-41
2023/12/08 00:17:31;;;;;;;34.92;19.58;;;;;;;1.95;100.00;100600.94;5093200;28;20055;-41
2023/12/08 00:20:00;;;;;;;33.92;20.00;;;;;;;1.96;100.00;100605.31;5092983;28;20075;-41
2023/12/08 00:22:29;;;;;;;35.70;19.38;;;;;;;1.89;100.00;100603.69;5093252;28;20273;-41
2023/12/08 00:24:58;;;;;;;34.65;20.25;;;;;;;1.93;100.00;100602.72;5092205;28;20052;-42
2023/12/08 00:27:28;;;;;;;33.58;19.80;;;;;;;1.97;100.00;100613.16;5092592;28;20059;-42
2023/12/08 00:29:56;;;;;;;36.58;20.80;;;;;;;1.96;100.00;100607.94;5092865;28;20052;-41
2023/12/08 00:32:25;;;;;;;37.95;21.55;;;;;;;2.02;100.00;100618.31;5092839;28;20044;-41
2023/12/08 00:34:55;;;;;;;39.72;22.77;;;;;;;2.04;100.00;100616.56;5092607;28;20051;-41
2023/12/08 00:37:25;;;;;;;37.45;21.25;;;;;;;1.89;100.00;100620.31;5093136;28;20051;-41
2023/12/08 00:39:53;;;;;;;36.20;20.73;;;;;;;1.91;100.00;100622.94;5092990;28;20066;-41
2023/12/08 00:42:22;;;;;;;38.83;19.83;;;;;;;1.87;100.00;100626.53;5092668;28;20056;-41
2023/12/08 00:44:52;;;;;;;33.72;19.67;;;;;;;1.89;100.00;100628.22;5092661;28;20048;-41
2023/12/08 00:47:20;;;;;;;33.80;18.95;;;;;;;1.71;100.00;100629.41;5092342;28;20047;-41
2023/12/08 00:49:48;;;;;;;33.42;19.60;;;;;;;1.72;100.00;100633.78;5092464;28;20542;-41
2023/12/08 00:52:20;;;;;;;33.38;18.70;;;;;;;1.39;100.00;100642.25;5092291;28;20048;-42
2023/12/08 00:54:49;;;;;;;32.60;18.83;;;;;;;1.72;100.00;100639.03;5092150;28;20123;-40
2023/12/08 00:57:17;;;;;;;34.67;20.17;;;;;;;1.70;100.00;100638.22;5092267;28;20040;-41
2023/12/08 00:59:45;;;;;;;33.13;18.95;;;;;;;1.69;100.00;100639.09;5092819;28;20048;-41
2023/12/08 01:02:15;;;;;;;34.97;19.85;;;;;;;1.75;100.00;100629.38;5093042;28;20048;-41
2023/12/08 01:04:44;;;;;;;35.85;20.00;;;;;;;1.94;100.00;100631.66;5092078;28;20354;-40
2023/12/08 01:07:13;;;;;;;35.13;19.80;;;;;;;1.95;100.00;100632.50;5092419;28;20358;-41
2023/12/08 01:09:41;;;;;;;35.40;19.92;;;;;;;1.86;100.00;100624.78;5092080;28;20044;-41
2023/12/08 01:12:10;;;;;;;34.60;19.70;;;;;;;1.91;100.00;100625.56;5092012;28;20051;-41
2023/12/08 01:14:38;;;;;;;32.40;20.15;;;;;;;1.95;100.00;100622.00;5091826;28;20168;-41
2023/12/08 01:17:07;;;;;;;36.53;20.35;;;;;;;2.13;100.00;100628.66;5091870;28;20394;-42
2023/12/08 01:19:36;;;;;;;37.58;20.50;;;;;;;2.10;100.00;100626.06;5091619;28;20070;-41
2023/12/08 01:22:05;;;;;;;36.20;20.73;;;;;;;2.01;100.00;100622.72;5091947;28;20048;-41
2023/12/08 01:24:34;;;;;;;37.30;20.70;;;;;;;1.95;100.00;100628.13;5091551;28;20052;-40
2023/12/08 01:27:02;;;;;;;35.55;20.73;;;;;;;1.83;100.00;100632.72;5091592;28;20047;-42
2023/12/08 01:29:31;;;;;;;41.60;21.77;;;;;;;1.90;100.00;100635.22;5090784;28;20051;-42
2023/12/08 01:31:59;;;;;;;36.10;20.95;;;;;;;1.98;100.00;100627.19;5091509;28;20048;-41
2023/12/08 01:34:28;;;;;;;38.47;20.85;;;;;;;1.95;100.00;100629.88;5091852;28;20083;-41
2023/12/08 01:36:58;;;;;;;40.25;22.33;;;;;;;1.87;100.00;100621.25;5091532;28;20454;-41
2023/12/08 01:39:26;;;;;;;42.45;22.80;;;;;;;2.06;100.00;100630.53;5091839;28;20117;-42
2023/12/08 01:41:54;;;;;;;39.95;22.40;;;;;;;2.18;100.00;100630.28;5091590;28;20040;-41
2023/12/08 01:44:23;;;;;;;39.53;22.52;;;;;;;2.27;100.00;100640.63;5091747;28;20040;-42
2023/12/08 01:46:52;;;;;;;40.97;22.90;;;;;;;2.29;100.00;100638.84;5091935;28;20059;-42
2023/12/08 01:49:21;;;;;;;36.55;21.05;;;;;;;2.33;100.00;100636.16;5091767;28;20135;-40
2023/12/08 01:51:51;;;;;;;40.47;22.60;;;;;;;2.13;100.00;100628.66;5091229;28;20047;-41
2023/12/08 01:54:20;;;;;;;42.47;23.45;;;;;;;2.13;100.00;100629.53;5091304;28;20040;-42
2023/12/08 01:56:49;;;;;;;39.33;21.92;;;;;;;2.08;100.00;100634.00;5092006;28;20044;-41
2023/12/08 01:59:18;;;;;;;36.70;21.75;;;;;;;2.10;100.00;100632.19;5094548;28;20040;-41
2023/12/08 02:01:46;;;;;;;40.10;23.08;;;;;;;2.02;100.00;100634.09;5095659;28;20123;-50
2023/12/08 02:04:15;;;;;;;40.58;22.15;;;;;;;2.15;100.00;100635.63;5095639;28;20389;-41
2023/12/08 02:06:44;;;;;;;38.25;21.83;;;;;;;1.87;100.00;100630.03;5095862;28;20059;-41
2023/12/08 02:09:17;;;;;;;;;;;;;;;1.91;100.00;100631.69;5096262;28;20055;-40
2023/12/08 02:11:47;;;;;;;40.30;21.42;;;;;;;1.74;100.00;100625.88;5095270;28;19919;-41
2023/12/08 02:14:15;;;;;;;41.85;21.17;;;;;;;1.73;100.00;100625.00;5095535;28;20047;-43
2023/12/08 02:16:50;;;;;;;42.90;22.17;;;;;;;1.91;100.00;100622.94;5095754;28;20084;-41
2023/12/08 02:19:19;;;;;;;39.30;21.38;;;;;;;2.06;100.00;100627.03;5095523;28;20044;-41
2023/12/08 02:21:48;;;;;;;43.00;23.00;;;;;;;2.01;100.00;100613.97;5094872;28;20048;-41
2023/12/08 02:24:19;;;;;;;41.67;21.55;;;;;;;2.12;100.00;100625.13;5094909;28;20054;-41
2023/12/08 02:26:49;;;;;;;44.05;22.02;;;;;;;2.26;100.00;100616.97;5094796;28;20087;-41
2023/12/08 02:29:17;;;;;;;42.65;22.38;;;;;;;2.31;100.00;100609.84;5095101;28;20193;-42
2023/12/08 02:31:52;;;;;;;44.25;23.25;;;;;;;2.24;100.00;100609.13;5095052;28;20051;-42
2023/12/08 02:34:26;;;;;;;43.10;22.73;;;;;;;2.20;100.00;100606.56;5095263;28;20154;-42
2023/12/08 02:36:55;;;;;;;43.38;21.40;;;;;;;2.15;100.00;100611.94;5095092;28;20044;-42
2023/12/08 02:39:27;;;;;;;41.65;21.23;;;;;;;2.24;100.00;100614.38;5095027;28;20044;-41
2023/12/08 02:41:56;;;;;;;40.72;21.25;;;;;;;2.14;100.00;100617.25;5095226;28;20044;-42
2023/12/08 02:44:24;;;;;;;44.30;21.98;;;;;;;2.19;100.00;100621.50;5095062;28;20502;-41
2023/12/08 02:46:53;;;;;;;47.05;22.95;;;;;;;2.28;100.00;100618.69;5094582;28;20044;-40
2023/12/08 02:49:21;;;;;;;40.60;21.92;;;;;;;2.12;100.00;100617.25;5094805;28;20043;-42
2023/12/08 02:51:50;;;;;;;40.60;21.13;;;;;;;2.10;100.00;100621.69;5094820;28;20052;-41
2023/12/08 02:54:18;;;;;;;42.10;22.17;;;;;;;2.01;100.00;100620.09;5094902;28;20131;-41
2023/12/08 02:56:48;;;;;;;46.38;22.90;;;;;;;2.00;100.00;100620.13;5094571;28;20051;-41
2023/12/08 02:59:16;;;;;;;48.20;23.90;;;;;;;1.78;100.00;100618.81;5094861;28;20048;-42
2023/12/08 03:01:44;;;;;;;50.63;23.52;;;;;;;1.82;100.00;100626.59;5094375;28;20072;-41
2023/12/08 03:04:12;;;;;;;47.38;22.98;;;;;;;1.80;100.00;100620.50;5094602;28;20044;-41
2023/12/08 03:06:41;;;;;;;47.00;21.85;;;;;;;1.77;100.00;100623.19;5094456;28;20447;-42
2023/12/08 03:09:10;;;;;;;45.90;22.77;;;;;;;1.89;100.00;100633.47;5094138;28;20040;-41
2023/12/08 03:11:38;;;;;;;47.58;22.58;;;;;;;2.02;100.00;100623.59;5094271;28;20382;-40
2023/12/08 03:14:12;;;;;;;47.35;21.73;;;;;;;1.85;100.00;100631.81;5094490;28;20043;-41
2023/12/08 03:16:40;;;;;;;46.33;21.85;;;;;;;1.81;100.00;100630.13;5094288;28;20050;-42
2023/12/08 03:19:08;;;;;;;47.47;22.23;;;;;;;1.68;100.00;100629.47;5095332;28;20044;-42
2023/12/08 03:21:37;;;;;;;43.08;21.17;;;;;;;1.67;100.00;100627.75;5095356;28;20048;-41
2023/12/08 03:24:06;;;;;;;46.72;21.42;;;;;;;1.88;100.00;100620.34;5095028;28;20463;-42
2023/12/08 03:26:34;;;;;;;47.13;21.75;;;;;;;1.94;100.00;100625.53;5094987;28;20420;-43
2023/12/08 03:29:03;;;;;;;44.30;20.30;;;;;;;2.01;100.00;100627.13;5095247;28;20074;-41
2023/12/08 03:31:33;;;;;;;42.50;21.05;;;;;;;1.95;100.00;100622.00;5094841;28;20488;-41
2023/12/08 03:34:01;;;;;;;43.50;21.05;;;;;;;1.90;100.00;100623.81;5094853;28;20048;-40
2023/12/08 03:36:30;;;;;;;42.47;20.63;;;;;;;1.80;100.00;100632.78;5094244;28;20457;-42
2023/12/08 03:38:58;;;;;;;42.38;20.80;;;;;;;2.02;100.00;100634.09;5093544;28;20040;-41
2023/12/08 03:41:27;;;;;;;42.42;21.42;;;;;;;1.92;100.00;100632.53;5093683;28;20077;-42
2023/12/08 03:43:55;;;;;;;43.08;21.92;;;;;;;1.77;100.00;100628.47;5093366;28;20508;-40
2023/12/08 03:46:24;;;;;;;39.83;20.38;;;;;;;1.89;100.00;100629.97;5093217;28;20083;-40
2023/12/08 03:48:54;;;;;;;44.50;22.05;;;;;;;2.04;100.00;100632.34;5093119;28;20047;-42
2023/12/08 03:51:23;;;;;;;49.13;22.10;;;;;;;1.95;100.00;100628.13;5093121;28;20438;-40
2023/12/08 03:53:51;;;;;;;43.13;21.92;;;;;;;2.04;100.00;100637.59;5093067;28;20051;-40
2023/12/08 03:56:20;;;;;;;41.67;21.25;;;;;;;1.81;100.00;100631.88;5092745;28;20098;-41
2023/12/08 03:58:48;;;;;;;46.40;22.08;;;;;;;1.81;100.00;100635.38;5093693;28;20093;-43
2023/12/08 04:01:17;;;;;;;48.17;22.10;;;;;;;1.83;100.00;100628.31;5093215;28;20047;-41
2023/12/08 04:03:46;;;;;;;44.70;21.15;;;;;;;1.91;100.00;100626.41;5093550;28;20066;-41
2023/12/08 04:06:16;;;;;;;46.83;22.10;;;;;;;1.70;100.00;100621.56;5093043;28;20140;-40
2023/12/08 04:08:45;;;;;;;46.58;21.90;;;;;;;1.70;100.00;100622.44;5092839;28;20135;-40
2023/12/08 04:11:13;;;;;;;47.92;22.25;;;;;;;1.62;100.00;100619.06;5092951;28;20131;-41
2023/12/08 04:13:42;;;;;;;49.92;22.27;;;;;;;1.73;100.00;100621.50;5092617;28;20054;-41
2023/12/08 04:16:10;;;;;;;48.40;22.58;;;;;;;1.71;100.00;100610.16;5092759;28;20048;-41
2023/12/08 04:18:38;;;;;;;46.15;20.52;;;;;;;1.81;100.00;100621.38;5092542;28;20044;-41
2023/12/08 04:21:07;;;;;;;46.80;21.17;;;;;;;1.83;100.00;100611.66;5092053;28;20435;-41
2023/12/08 04:23:37;;;;;;;45.97;21.80;;;;;;;1.91;100.00;100609.78;5092558;28;20044;-41
2023/12/08 04:26:07;;;;;;;44.47;21.42;;;;;;;1.97;100.00;100604.41;5092514;28;20052;-40
2023/12/08 04:28:36;;;;;;;44.03;20.80;;;;;;;1.79;100.00;100600.34;5109770;28;20059;-41
2023/12/08 04:31:05;;;;;;;43.65;21.42;;;;;;;1.57;100.00;100605.16;5092572;28;20131;-41
2023/12/08 04:33:33;;;;;;;46.70;20.48;;;;;;;1.64;100.00;100592.72;5092771;28;20047;-42
2023/12/08 04:36:03;;;;;;;43.58;21.10;;;;;;;1.78;100.00;100593.38;5092554;28;20443;-42
2023/12/08 04:38:31;;;;;;;45.47;22.35;;;;;;;1.83;100.00;100580.09;5092676;28;20048;-42
2023/12/08 04:41:01;;;;;;;46.70;22.50;;;;;;;1.79;100.00;100588.97;5092562;28;20087;-40
2023/12/08 04:43:29;;;;;;;45.90;23.65;;;;;;;1.69;100.00;100588.28;5092743;28;20104;-41
2023/12/08 04:45:58;;;;;;;46.28;22.30;;;;;;;1.76;100.00;100583.78;5092500;28;20109;-40
2023/12/08 04:48:26;;;;;;;47.47;22.60;;;;;;;1.75;100.00;100576.78;5092462;28;20139;-41
2023/12/08 04:50:55;;;;;;;49.40;23.33;;;;;;;1.76;100.00;100584.63;5092120;28;20086;-41
2023/12/08 04:53:24;;;;;;;44.67;22.85;;;;;;;1.75;100.00;100584.69;5092358;28;20086;-43
2023/12/08 04:55:52;;;;;;;49.60;23.90;;;;;;;1.94;100.00;100589.56;5092402;28;20048;-42
2023/12/08 04:58:22;;;;;;;45.33;21.73;;;;;;;1.95;100.00;100582.53;5092262;28;20132;-41
2023/12/08 05:00:54;;;;;;;46.67;22.33;;;;;;;1.96;100.00;100582.50;5092443;28;20465;-41
2023/12/08 05:03:24;;;;;;;47.40;23.08;;;;;;;1.85;100.00;100583.59;5091825;28;20531;-41
2023/12/08 05:05:52;;;;;;;43.35;22.67;;;;;;;1.93;100.00;100582.56;5092400;28;20089;-40
2023/12/08 05:08:22;;;;;;;41.47;22.55;;;;;;;2.02;100.00;100584.13;5091821;28;20058;-42
2023/12/08 05:10:51;;;;;;;42.83;21.77;;;;;;;2.06;100.00;100583.19;5092604;28;20047;-41
2023/12/08 05:13:19;;;;;;;44.25;21.27;;;;;;;2.21;100.00;100582.84;5097887;28;20040;-41
2023/12/08 05:15:49;;;;;;;43.30;21.80;;;;;;;2.26;100.00;100585.41;5112519;28;20050;-41
2023/12/08 05:18:17;;;;;;;39.88;21.05;;;;;;;2.20;100.00;100585.50;5112939;28;20047;-40
2023/12/08 05:20:46;;;;;;;40.75;21.05;;;;;;;2.25;100.00;100584.53;5112272;28;20101;-42
2023/12/08 05:23:15;;;;;;;42.28;21.17;;;;;;;2.31;100.00;100578.25;5112127;28;20059;-41
2023/12/08 05:25:43;;;;;;;40.25;21.45;;;;;;;2.34;100.00;100580.84;5112103;28;20531;-41
2023/12/08 05:28:11;;;;;;;44.05;21.60;;;;;;;2.35;100.00;100585.19;5113123;28;20121;-41
2023/12/08 05:30:39;;;;;;;42.08;21.58;;;;;;;2.36;100.00;100596.59;5113376;28;20047;-41
2023/12/08 05:33:09;;;;;;;42.97;21.20;;;;;;;2.38;100.00;100602.69;5117867;28;20043;-41
2023/12/08 05:35:38;;;;;;;44.17;22.30;;;;;;;2.40;100.00;100599.13;5119499;27;20495;-40
2023/12/08 05:38:06;;;;;;;41.83;21.67;;;;;;;2.38;100.00;100605.31;5119309;27;20408;-41
2023/12/08 05:40:35;;;;;;;40.38;21.10;;;;;;;2.32;100.00;100597.53;5118723;27;20407;-41
2023/12/08 05:43:03;;;;;;;45.35;23.25;;;;;;;2.33;100.00;100610.69;5118684;27;20188;-40
2023/12/08 05:45:32;;;;;;;42.13;21.90;;;;;;;2.28;100.00;100604.66;5119286;27;20043;-41
2023/12/08 05:48:00;;;;;;;43.85;22.73;;;;;;;2.26;100.00;100611.72;5119228;27;20120;-42
2023/12/08 05:50:31;;;;;;;39.85;20.85;;;;;;;2.21;100.00;100609.16;5119064;27;20044;-40
2023/12/08 05:53:00;;;;;;;41.45;20.98;;;;;;;2.28;100.00;100605.50;5119302;27;20047;-41
2023/12/08 05:55:28;;;;;;;40.88;21.67;;;;;;;2.22;100.00;100599.50;5118154;27;20469;-41
2023/12/08 05:57:57;;;;;;;46.05;22.67;;;;;;;2.15;100.00;100604.03;5118367;27;20047;-40
2023/12/08 06:00:25;;;;;;;46.30;23.67;;;;;;;2.05;100.00;100602.50;5118624;27;20063;-41
2023/12/08 06:02:54;;;;;;;43.42;23.80;;;;;;;2.13;100.00;100604.97;5118518;28;20154;-40
2023/12/08 06:05:22;;;;;;;42.72;23.23;;;;;;;2.19;100.00;100608.34;5118495;27;20047;-41
2023/12/08 06:07:52;;;;;;;50.13;23.58;;;;;;;2.11;100.00;100597.09;5118244;27;20043;-42
2023/12/08 06:10:22;;;;;;;46.10;23.52;;;;;;;2.09;100.00;100609.41;5118828;27;20050;-41
2023/12/08 06:12:52;;;;;;;49.03;24.48;;;;;;;1.98;100.00;100612.25;5118447;27;20043;-42
2023/12/08 06:15:21;;;;;;;46.70;23.90;;;;;;;1.76;100.00;100615.34;5118243;27;20047;-43
2023/12/08 06:17:49;;;;;;;47.08;23.63;;;;;;;1.90;100.00;100616.78;5118380;27;20043;-46
2023/12/08 06:20:17;;;;;;;46.97;23.98;;;;;;;1.45;100.00;100610.63;5118194;27;20138;-41
2023/12/08 06:22:46;;;;;;;45.13;23.23;;;;;;;1.37;100.00;100617.78;5118126;27;20048;-41
2023/12/08 06:25:16;;;;;;;50.03;24.20;;;;;;;1.36;100.00;100613.41;5118106;27;20356;-41
2023/12/08 06:27:45;;;;;;;47.65;23.58;;;;;;;1.25;100.00;100628.47;5118205;27;20133;-40
2023/12/08 06:30:14;;;;;;;47.00;22.95;;;;;;;1.32;100.00;100620.47;5119297;27;20188;-40
2023/12/08 06:32:42;;;;;;;44.22;23.63;;;;;;;1.41;100.00;100625.56;5119301;27;20044;-40
2023/12/08 06:35:11;;;;;;;45.67;23.55;;;;;;;1.45;100.00;100626.41;5118913;27;20054;-41
2023/12/08 06:37:39;;;;;;;47.85;24.85;;;;;;;1.64;100.00;100630.44;5118104;27;20134;-40
2023/12/08 06:40:10;;;;;;;49.80;24.75;;;;;;;1.72;100.00;100636.41;5118024;27;20051;-42
2023/12/08 06:42:40;;;;;;;49.22;24.70;;;;;;;1.73;100.00;100632.88;5117913;28;20488;-41
2023/12/08 06:45:09;;;;;;;52.13;25.63;;;;;;;1.70;100.00;100638.22;5114237;27;20101;-41
2023/12/08 06:47:38;;;;;;;49.50;26.45;;;;;;;1.68;100.00;100637.38;5114299;28;20098;-41
2023/12/08 06:50:08;;;;;;;51.38;27.10;;;;;;;1.77;100.00;100635.47;5114885;28;20051;-42
2023/12/08 06:52:36;;;;;;;53.47;28.13;;;;;;;1.67;100.00;100633.00;5114622;28;20126;-41
2023/12/08 06:55:05;;;;;;;54.83;26.25;;;;;;;1.58;100.00;100635.81;5114415;28;20148;-41
2023/12/08 06:57:34;;;;;;;58.92;28.40;;;;;;;1.39;100.00;100634.38;5114983;28;20055;-44
2023/12/08 07:00:10;;;;;;;55.75;26.88;;;;;;;1.51;100.00;100631.53;5114252;28;20088;-42
2023/12/08 07:02:44;;;;;;;59.75;28.85;;;;;;;1.35;100.00;100630.03;5114787;28;20048;-41
2023/12/08 07:05:19;;;;;;;51.97;27.55;;;;;;;1.46;100.00;100633.38;5114568;28;20454;-43
2023/12/08 07:07:48;;;;;;;56.22;27.08;;;;;;;1.47;100.00;100631.63;5114340;28;20128;-41
2023/12/08 07:10:17;;;;;;;57.47;28.92;;;;;;;1.49;100.00;100621.94;5114259;28;20489;-41
2023/12/08 07:12:46;;;;;;;59.70;29.67;;;;;;;1.44;100.00;100617.63;5114166;28;20046;-39
2023/12/08 07:15:16;;;;;;;63.30;29.67;;;;;;;1.38;100.00;100625.63;5114303;28;20040;-41
2023/12/08 07:17:44;;;;;;;56.45;29.05;;;;;;;1.43;100.00;100622.91;5114587;28;20086;-41
2023/12/08 07:20:13;;;;;;;57.55;28.77;;;;;;;1.37;100.00;100636.16;5107972;28;20040;-41
2023/12/08 07:22:43;;;;;;;59.13;29.70;;;;;;;1.40;100.00;100636.09;5093936;28;20071;-41
2023/12/08 07:25:14;;;;;;;60.35;30.38;;;;;;;1.42;100.00;100637.81;5093869;28;20084;-41
2023/12/08 07:27:43;;;;;;;61.00;29.60;;;;;;;1.41;100.00;100651.84;5094314;28;20064;-42
2023/12/08 07:30:18;;;;;;;59.20;29.40;;;;;;;1.36;100.00;100655.47;5089354;28;20097;-42
2023/12/08 07:33:27;;;;;;;64.65;31.65;;;;;;;1.24;100.00;100656.50;5081884;28;20073;-42
2023/12/08 07:35:56;;;;;;;71.57;34.35;;;;;;;1.20;100.00;100652.19;5090895;28;20052;-40
2023/12/08 07:38:24;;;;;;;68.82;34.58;;;;;;;1.30;100.00;100652.94;5093978;28;20097;-42
2023/12/08 07:40:53;;;;;;;78.35;37.05;;;;;;;1.61;100.00;100648.88;5093764;28;20094;-40
2023/12/08 07:43:22;;;;;;;75.18;35.40;;;;;;;1.50;100.00;100639.44;5093231;28;20127;-42
2023/12/08 07:45:53;;;;;;;74.03;35.65;;;;;;;1.57;100.00;100644.59;5089696;28;20045;-42
2023/12/08 07:48:22;;;;;;;67.85;35.10;;;;;;;1.46;100.00;100638.66;5093154;28;20461;-44
2023/12/08 07:50:50;;;;;;;69.03;34.17;;;;;;;1.62;100.00;100632.22;5093318;28;20399;-40
2023/12/08 07:53:19;;;;;;;63.58;32.53;;;;;;;1.61;100.00;100633.09;5092810;28;20044;-41
2023/12/08 07:55:47;;;;;;;60.63;30.25;;;;;;;1.60;100.00;100631.38;5092545;28;20044;-41
2023/12/08 07:58:16;;;;;;;67.55;32.92;;;;;;;1.76;100.00;100631.13;5094128;28;20047;-41
2023/12/08 08:00:44;;;;;;;63.35;31.63;;;;;;;1.79;100.00;100631.91;5093552;28;20044;-40
2023/12/08 08:03:13;;;;;;;55.85;28.25;;;;;;;1.80;100.00;100620.50;5094829;28;20507;-41
2023/12/08 08:05:42;;;;;;;56.78;29.08;;;;;;;1.93;100.00;100624.66;5094693;28;20081;-42
2023/12/08 08:08:10;;;;;;;61.05;29.42;;;;;;;2.02;100.00;100628.84;5094613;28;20050;-42
2023/12/08 08:10:39;;;;;;;57.40;28.92;;;;;;;1.97;100.00;100638.59;5094126;28;20139;-40
2023/12/08 08:13:07;;;;;;;49.40;26.70;;;;;;;1.81;100.00;100639.78;5092881;28;20068;-44
2023/12/08 08:15:36;;;;;;;49.17;25.33;;;;;;;1.95;100.00;100643.03;5092262;28;20083;-40
2023/12/08 08:18:04;;;;;;;55.05;27.88;;;;;;;2.05;100.00;100649.84;5092610;28;20039;-41
2023/12/08 08:20:34;;;;;;;59.40;29.67;;;;;;;2.21;100.00;100653.91;5092927;28;20550;-41
2023/12/08 08:23:02;;;;;;;58.60;30.35;;;;;;;2.32;100.00;100655.47;5092863;28;20048;-51
2023/12/08 08:25:31;;;;;;;61.78;30.45;;;;;;;2.32;100.00;100648.47;5093901;28;20044;-42
2023/12/08 08:28:01;;;;;;;58.78;29.05;;;;;;;2.32;100.00;100648.47;5095328;28;20076;-46
2023/12/08 08:30:29;;;;;;;57.40;29.50;;;;;;;2.04;100.00;100640.22;5096601;28;20143;-40
2023/12/08 08:32:57;;;;;;;57.17;28.88;;;;;;;2.10;100.00;100645.34;5097499;28;20041;-41
2023/12/08 08:35:25;;;;;;;54.75;28.38;;;;;;;2.12;100.00;100640.06;5096934;28;20091;-42
2023/12/08 08:37:55;;;;;;;56.05;28.38;;;;;;;2.16;100.00;100642.63;5098176;28;20048;-41
2023/12/08 08:40:24;;;;;;;59.35;27.75;;;;;;;1.92;100.00;100643.06;5097915;28;20108;-42
2023/12/08 08:42:53;;;;;;;49.88;27.05;;;;;;;1.85;100.00;100646.72;5098513;28;20055;-41
2023/12/08 08:45:21;;;;;;;54.42;28.10;;;;;;;1.93;100.00;100650.97;5098695;28;20047;-41
2023/12/08 08:47:49;;;;;;;59.63;27.50;;;;;;;1.98;100.00;100654.34;5096532;28;20119;-40
2023/12/08 08:50:17;;;;;;;57.90;28.45;;;;;;;2.10;100.00;100644.50;5092533;28;20088;-42
2023/12/08 08:52:46;;;;;;;54.47;27.83;;;;;;;2.20;100.00;100643.41;5092642;28;20040;-42
2023/12/08 08:55:16;;;;;;;63.80;30.95;;;;;;;1.98;100.00;100645.59;5095288;28;20044;-42
2023/12/08 08:57:46;;;;;;;57.17;29.63;;;;;;;1.78;100.00;100639.84;5097906;28;20044;-41
2023/12/08 09:00:14;;;;;;;63.00;30.60;;;;;;;1.83;100.00;100625.69;5095740;28;20564;-40
2023/12/08 09:02:43;;;;;;;67.25;33.10;;;;;;;1.77;100.00;100610.03;5097137;28;20105;-40
2023/12/08 09:05:13;;;;;;;67.45;33.13;;;;;;;1.69;100.00;100604.91;5093455;28;20072;-39
2023/12/08 09:07:42;;;;;;;70.68;33.30;;;;;;;1.68;100.00;100599.69;5090977;28;20509;-40
2023/12/08 09:10:10;;;;;;;78.45;37.72;;;;;;;1.66;100.00;100615.50;5091842;28;20464;-41
2023/12/08 09:12:40;;;;;;;72.72;34.97;;;;;;;1.70;100.00;100629.44;5093272;28;20059;-40
2023/12/08 09:15:11;;;;;;;75.30;34.80;;;;;;;1.95;100.00;100638.63;5093100;28;20139;-41
2023/12/08 09:17:40;;;;;;;72.43;35.00;;;;;;;2.11;100.00;100633.06;5090957;28;20404;-41
2023/12/08 09:20:13;;;;;;;79.35;37.35;;;;;;;2.24;100.00;100640.72;5091385;28;20056;-40
2023/12/08 09:22:42;;;;;;;73.65;36.63;;;;;;;2.38;100.00;100647.44;5091591;28;20047;-40
2023/12/08 09:25:11;;;;;;;68.07;34.25;;;;;;;2.49;100.00;100651.59;5091229;28;20135;-40
2023/12/08 09:27:41;;;;;;;76.00;37.55;;;;;;;2.48;100.00;100639.31;5091201;28;20047;-40
2023/12/08 09:30:10;;;;;;;76.05;36.33;;;;;;;2.40;100.00;100635.13;5091334;28;20056;-41
2023/12/08 09:32:39;;;;;;;73.20;35.58;;;;;;;2.32;100.00;100626.50;5091270;28;20055;-40
2023/12/08 09:35:07;;;;;;;72.78;36.20;;;;;;;2.32;100.00;100634.41;5093344;28;20121;-39
2023/12/08 09:37:36;;;;;;;70.45;35.72;;;;;;;2.21;100.00;100634.63;5091608;28;20078;-40
2023/12/08 09:40:08;;;;;;;74.40;36.78;;;;;;;2.23;100.00;100633.72;5091230;28;20494;-40
2023/12/08 09:42:40;;;;;;;75.15;38.15;;;;;;;2.20;100.00;100617.97;5071208;28;20405;-41
2023/12/08 09:45:10;;;;;;;73.57;37.22;;;;;;;2.21;100.00;100619.69;5070871;28;20124;-46
2023/12/08 09:47:41;;;;;;;73.57;37.55;;;;;;;2.09;100.00;100622.56;5089620;28;20048;-41
2023/12/08 09:50:10;;;;;;;77.97;38.60;;;;;;;2.25;100.00;100618.75;5091989;28;20055;-43
2023/12/08 09:52:39;;;;;;;76.38;38.35;;;;;;;2.36;100.00;100617.66;5091515;28;20040;-40
2023/12/08 09:55:08;;;;;;;69.05;36.30;;;;;;;2.35;100.00;100614.16;5091939;28;20131;-42
2023/12/08 09:57:38;;;;;;;69.90;35.17;;;;;;;2.49;100.00;100611.22;5091616;28;20475;-40
2023/12/08 10:00:12;;;;;;;68.88;35.75;;;;;;;2.39;100.00;100604.41;5091073;28;20135;-41
2023/12/08 10:02:42;;;;;;;69.68;35.38;;;;;;;2.46;100.00;100596.38;5091381;28;20075;-40
2023/12/08 10:05:11;;;;;;;68.05;33.88;;;;;;;2.44;100.00;100600.81;5090753;28;20047;-39
2023/12/08 10:07:43;;;;;;;57.67;31.55;;;;;;;2.22;100.00;100604.75;5091239;28;20156;-41
2023/12/08 10:10:12;;;;;;;62.72;33.67;;;;;;;2.46;100.00;100595.50;5091241;28;20048;-42
2023/12/08 10:12:41;;;;;;;62.92;32.63;;;;;;;2.27;100.00;100597.66;5091010;28;20639;-41
2023/12/08 10:15:11;;;;;;;62.53;33.08;;;;;;;2.37;100.00;100603.59;5090930;28;20127;-40
2023/12/08 10:17:48;;;;;;;60.03;33.83;;;;;;;2.65;100.00;100598.59;5091030;28;20508;-41
2023/12/08 10:20:20;;;;;;;60.10;31.33;;;;;;;2.56;100.00;100591.78;5093946;28;20044;-41
2023/12/08 10:22:50;;;;;;;56.33;30.67;;;;;;;2.55;100.00;100587.41;5094888;28;20147;-41
2023/12/08 10:25:19;;;;;;;54.22;28.95;;;;;;;2.34;100.00;100586.09;5095839;28;20111;-41
2023/12/08 10:27:51;;;;;;;56.60;30.17;;;;;;;2.41;100.00;100579.78;5094026;28;20117;-40
2023/12/08 10:30:21;;;;;;;56.75;30.00;;;;;;;2.19;100.00;100573.25;5094867;28;20044;-40
2023/12/08 10:32:51;;;;;;;57.75;30.60;;;;;;;2.18;100.00;100571.53;5094684;28;20054;-40
2023/12/08 10:35:21;;;;;;;59.03;29.77;;;;;;;2.23;100.00;100572.31;5094523;28;20044;-41
2023/12/08 10:37:49;;;;;;;67.25;33.95;;;;;;;2.49;100.00;100582.25;5094137;28;20048;-40
2023/12/08 10:40:18;;;;;;;58.72;32.05;;;;;;;2.42;100.00;100578.06;5094657;28;20405;-40
2023/12/08 10:42:48;;;;;;;70.95;37.85;;;;;;;2.48;100.00;100575.25;5094717;28;20040;-40
2023/12/08 10:45:17;;;;;;;59.30;32.70;;;;;;;2.51;100.00;100577.81;5094315;28;20051;-39
2023/12/08 10:47:49;;;;;;;58.75;32.50;;;;;;;2.48;100.00;100570.88;5094594;28;20055;-40
2023/12/08 10:50:21;;;;;;;58.90;31.23;;;;;;;2.70;100.00;100567.75;5094622;28;20048;-40
2023/12/08 10:52:51;;;;;;;60.13;31.58;;;;;;;2.63;100.00;100566.16;5094924;28;20055;-42
2023/12/08 10:55:20;;;;;;;57.25;31.65;;;;;;;2.51;100.00;100576.09;5094592;28;20048;-40
2023/12/08 10:57:53;;;;;;;61.60;34.70;;;;;;;2.71;100.00;100564.22;5094835;28;20123;-41
2023/12/08 11:00:26;;;;;;;68.82;34.83;;;;;;;2.80;100.00;100561.38;5094561;28;20048;-40
2023/12/08 11:02:57;;;;;;;71.10;34.75;;;;;;;2.81;100.00;100553.44;5095336;28;20413;-41
2023/12/08 11:05:37;;;;;;;60.60;31.23;;;;;;;2.77;100.00;100551.75;5094557;28;20047;-40
2023/12/08 11:08:12;;;;;;;65.22;32.03;;;;;;;2.74;100.00;100546.56;5094105;28;20056;-41
2023/12/08 11:10:45;;;;;;;58.92;30.75;;;;;;;2.66;100.00;100553.78;5093911;28;20222;-40
2023/12/08 11:13:24;;;;;;;57.08;30.30;;;;;;;2.57;100.00;100551.38;5094149;28;20484;-40
2023/12/08 11:16:06;;;;;;;51.63;29.70;;;;;;;2.58;100.00;100550.47;5093546;28;20055;-46
2023/12/08 11:18:36;;;;;;;53.33;28.90;;;;;;;2.51;100.00;100546.22;5094343;28;20051;-40